sensor_id;sensor_type;location;lat;lon;timestamp;P1;durP1;ratioP1;P2;durP2;ratioP2
34505;SDS011;20748;42.632;23.198;2023-07-28T00:00:30;3.20;;;2.45;;
34505;SDS011;20748;42.632;23.198;2023-07-28T00:03:02;4.30;;;3.08;;
34505;SDS011;20748;42.632;23.198;2023-07-28T00:05:35;5.53;;;2.92;;
34505;SDS011;20748;42.632;23.198;2023-07-28T00:08:08;4.65;;;2.95;;
34505;SDS011;20748;42.632;23.198;2023-07-28T00:10:40;4.30;;;2.97;;
34505;SDS011;20748;42.632;23.198;2023-07-28T00:13:13;5.40;;;3.33;;
34505;SDS011;20748;42.632;23.198;2023-07-28T00:15:46;3.95;;;2.80;;
34505;SDS011;20748;42.632;23.198;2023-07-28T00:18:18;4.18;;;2.72;;
34505;SDS011;20748;42.632;23.198;2023-07-28T00:20:52;3.90;;;3.10;;
34505;SDS011;20748;42.632;23.198;2023-07-28T00:23:24;3.78;;;2.50;;
34505;SDS011;20748;42.632;23.198;2023-07-28T00:25:57;4.75;;;2.65;;
34505;SDS011;20748;42.632;23.198;2023-07-28T00:28:29;4.07;;;2.72;;
34505;SDS011;20748;42.632;23.198;2023-07-28T00:31:03;3.95;;;2.53;;
34505;SDS011;20748;42.632;23.198;2023-07-28T00:33:37;6.25;;;3.30;;
34505;SDS011;20748;42.632;23.198;2023-07-28T00:36:37;4.60;;;2.83;;
34505;SDS011;20748;42.632;23.198;2023-07-28T00:39:10;5.95;;;2.17;;
34505;SDS011;20748;42.632;23.198;2023-07-28T00:41:43;3.63;;;2.38;;
34505;SDS011;20748;42.632;23.198;2023-07-28T00:44:15;3.92;;;2.53;;
34505;SDS011;20748;42.632;23.198;2023-07-28T00:46:49;3.72;;;2.10;;
34505;SDS011;20748;42.632;23.198;2023-07-28T00:49:22;4.55;;;3.00;;
34505;SDS011;20748;42.632;23.198;2023-07-28T00:51:54;4.95;;;2.58;;
34505;SDS011;20748;42.632;23.198;2023-07-28T00:54:28;4.65;;;2.88;;
34505;SDS011;20748;42.632;23.198;2023-07-28T00:57:01;3.75;;;2.40;;
34505;SDS011;20748;42.632;23.198;2023-07-28T00:59:33;4.07;;;2.55;;
34505;SDS011;20748;42.632;23.198;2023-07-28T01:02:07;4.30;;;2.65;;
34505;SDS011;20748;42.632;23.198;2023-07-28T01:04:39;3.58;;;2.65;;
34505;SDS011;20748;42.632;23.198;2023-07-28T01:07:13;5.25;;;2.28;;
34505;SDS011;20748;42.632;23.198;2023-07-28T01:09:50;3.58;;;2.78;;
34505;SDS011;20748;42.632;23.198;2023-07-28T01:12:27;3.88;;;2.08;;
34505;SDS011;20748;42.632;23.198;2023-07-28T01:15:00;3.63;;;2.60;;
34505;SDS011;20748;42.632;23.198;2023-07-28T01:17:33;3.72;;;3.10;;
34505;SDS011;20748;42.632;23.198;2023-07-28T01:20:06;5.25;;;2.70;;
34505;SDS011;20748;42.632;23.198;2023-07-28T01:22:44;3.75;;;2.42;;
34505;SDS011;20748;42.632;23.198;2023-07-28T01:25:22;3.60;;;2.13;;
34505;SDS011;20748;42.632;23.198;2023-07-28T01:28:04;3.83;;;2.50;;
34505;SDS011;20748;42.632;23.198;2023-07-28T01:30:38;4.93;;;3.05;;
34505;SDS011;20748;42.632;23.198;2023-07-28T01:33:11;3.22;;;2.10;;
34505;SDS011;20748;42.632;23.198;2023-07-28T01:35:44;3.58;;;2.38;;
34505;SDS011;20748;42.632;23.198;2023-07-28T01:38:16;3.33;;;2.17;;
34505;SDS011;20748;42.632;23.198;2023-07-28T01:40:49;3.25;;;2.25;;
34505;SDS011;20748;42.632;23.198;2023-07-28T01:43:22;4.30;;;2.40;;
34505;SDS011;20748;42.632;23.198;2023-07-28T01:45:54;3.50;;;2.33;;
34505;SDS011;20748;42.632;23.198;2023-07-28T01:48:27;4.05;;;2.55;;
34505;SDS011;20748;42.632;23.198;2023-07-28T01:50:59;4.10;;;2.60;;
34505;SDS011;20748;42.632;23.198;2023-07-28T01:53:32;3.38;;;2.35;;
34505;SDS011;20748;42.632;23.198;2023-07-28T01:56:04;7.22;;;2.78;;
34505;SDS011;20748;42.632;23.198;2023-07-28T01:58:37;3.58;;;2.28;;
34505;SDS011;20748;42.632;23.198;2023-07-28T02:01:12;3.42;;;2.20;;
34505;SDS011;20748;42.632;23.198;2023-07-28T02:03:44;4.38;;;2.38;;
34505;SDS011;20748;42.632;23.198;2023-07-28T02:06:17;3.17;;;2.42;;
34505;SDS011;20748;42.632;23.198;2023-07-28T02:08:49;4.43;;;2.13;;
34505;SDS011;20748;42.632;23.198;2023-07-28T02:11:21;3.72;;;2.30;;
34505;SDS011;20748;42.632;23.198;2023-07-28T02:13:54;4.35;;;2.78;;
34505;SDS011;20748;42.632;23.198;2023-07-28T02:16:27;6.72;;;3.33;;
34505;SDS011;20748;42.632;23.198;2023-07-28T02:19:00;4.65;;;2.78;;
34505;SDS011;20748;42.632;23.198;2023-07-28T02:21:32;3.20;;;2.30;;
34505;SDS011;20748;42.632;23.198;2023-07-28T02:24:05;3.17;;;2.05;;
34505;SDS011;20748;42.632;23.198;2023-07-28T02:26:37;3.97;;;2.17;;
34505;SDS011;20748;42.632;23.198;2023-07-28T02:29:10;4.65;;;2.30;;
34505;SDS011;20748;42.632;23.198;2023-07-28T02:31:43;4.05;;;2.25;;
34505;SDS011;20748;42.632;23.198;2023-07-28T02:34:15;3.72;;;2.35;;
34505;SDS011;20748;42.632;23.198;2023-07-28T02:36:48;4.30;;;2.47;;
34505;SDS011;20748;42.632;23.198;2023-07-28T02:39:20;3.42;;;2.35;;
34505;SDS011;20748;42.632;23.198;2023-07-28T02:41:52;6.43;;;2.83;;
34505;SDS011;20748;42.632;23.198;2023-07-28T02:44:26;3.47;;;1.85;;
34505;SDS011;20748;42.632;23.198;2023-07-28T02:46:58;3.10;;;2.10;;
34505;SDS011;20748;42.632;23.198;2023-07-28T02:49:30;3.72;;;2.53;;
34505;SDS011;20748;42.632;23.198;2023-07-28T02:52:03;4.47;;;2.35;;
34505;SDS011;20748;42.632;23.198;2023-07-28T02:54:36;5.38;;;2.45;;
34505;SDS011;20748;42.632;23.198;2023-07-28T02:57:08;6.22;;;2.67;;
34505;SDS011;20748;42.632;23.198;2023-07-28T02:59:43;5.70;;;2.90;;
34505;SDS011;20748;42.632;23.198;2023-07-28T03:02:15;4.55;;;2.30;;
34505;SDS011;20748;42.632;23.198;2023-07-28T03:04:48;4.05;;;2.53;;
34505;SDS011;20748;42.632;23.198;2023-07-28T03:07:49;3.80;;;2.42;;
34505;SDS011;20748;42.632;23.198;2023-07-28T03:10:21;6.60;;;2.60;;
34505;SDS011;20748;42.632;23.198;2023-07-28T03:12:54;3.10;;;2.10;;
34505;SDS011;20748;42.632;23.198;2023-07-28T03:15:27;4.13;;;2.13;;
34505;SDS011;20748;42.632;23.198;2023-07-28T03:17:59;5.20;;;2.55;;
34505;SDS011;20748;42.632;23.198;2023-07-28T03:20:32;4.55;;;2.72;;
34505;SDS011;20748;42.632;23.198;2023-07-28T03:23:05;5.05;;;3.05;;
34505;SDS011;20748;42.632;23.198;2023-07-28T03:25:37;5.95;;;2.97;;
34505;SDS011;20748;42.632;23.198;2023-07-28T03:28:09;5.68;;;3.40;;
34505;SDS011;20748;42.632;23.198;2023-07-28T03:30:43;5.32;;;2.97;;
34505;SDS011;20748;42.632;23.198;2023-07-28T03:33:15;5.32;;;3.10;;
34505;SDS011;20748;42.632;23.198;2023-07-28T03:35:48;6.13;;;3.08;;
34505;SDS011;20748;42.632;23.198;2023-07-28T03:38:20;4.53;;;3.35;;
34505;SDS011;20748;42.632;23.198;2023-07-28T03:40:53;4.47;;;2.83;;
34505;SDS011;20748;42.632;23.198;2023-07-28T03:43:25;4.32;;;2.75;;
34505;SDS011;20748;42.632;23.198;2023-07-28T03:45:58;5.13;;;2.85;;
34505;SDS011;20748;42.632;23.198;2023-07-28T03:48:31;3.65;;;2.95;;
34505;SDS011;20748;42.632;23.198;2023-07-28T03:51:04;4.70;;;2.70;;
34505;SDS011;20748;42.632;23.198;2023-07-28T03:53:36;3.63;;;2.80;;
34505;SDS011;20748;42.632;23.198;2023-07-28T03:56:09;5.65;;;3.20;;
34505;SDS011;20748;42.632;23.198;2023-07-28T03:58:41;5.53;;;3.25;;
34505;SDS011;20748;42.632;23.198;2023-07-28T04:01:14;4.85;;;3.03;;
34505;SDS011;20748;42.632;23.198;2023-07-28T04:03:47;4.68;;;3.10;;
34505;SDS011;20748;42.632;23.198;2023-07-28T04:06:33;5.63;;;3.00;;
34505;SDS011;20748;42.632;23.198;2023-07-28T04:09:12;6.15;;;2.88;;
34505;SDS011;20748;42.632;23.198;2023-07-28T04:11:46;4.18;;;2.53;;
34505;SDS011;20748;42.632;23.198;2023-07-28T04:14:19;6.18;;;3.25;;
34505;SDS011;20748;42.632;23.198;2023-07-28T04:16:52;4.22;;;2.83;;
34505;SDS011;20748;42.632;23.198;2023-07-28T04:19:25;6.22;;;3.75;;
34505;SDS011;20748;42.632;23.198;2023-07-28T04:21:57;8.15;;;3.70;;
34505;SDS011;20748;42.632;23.198;2023-07-28T04:24:31;5.93;;;3.38;;
34505;SDS011;20748;42.632;23.198;2023-07-28T04:27:04;5.13;;;3.55;;
34505;SDS011;20748;42.632;23.198;2023-07-28T04:29:38;5.22;;;3.33;;
34505;SDS011;20748;42.632;23.198;2023-07-28T04:32:13;9.25;;;3.28;;
34505;SDS011;20748;42.632;23.198;2023-07-28T04:34:46;6.40;;;3.53;;
34505;SDS011;20748;42.632;23.198;2023-07-28T04:37:21;4.93;;;2.95;;
34505;SDS011;20748;42.632;23.198;2023-07-28T04:40:05;6.22;;;3.05;;
34505;SDS011;20748;42.632;23.198;2023-07-28T04:42:42;7.25;;;2.70;;
34505;SDS011;20748;42.632;23.198;2023-07-28T04:45:15;4.53;;;2.60;;
34505;SDS011;20748;42.632;23.198;2023-07-28T04:47:48;5.88;;;2.35;;
34505;SDS011;20748;42.632;23.198;2023-07-28T04:50:23;3.47;;;2.13;;
34505;SDS011;20748;42.632;23.198;2023-07-28T04:53:22;4.75;;;3.13;;
34505;SDS011;20748;42.632;23.198;2023-07-28T04:56:13;4.88;;;2.30;;
34505;SDS011;20748;42.632;23.198;2023-07-28T04:58:45;5.35;;;2.60;;
34505;SDS011;20748;42.632;23.198;2023-07-28T05:01:18;8.80;;;2.83;;
34505;SDS011;20748;42.632;23.198;2023-07-28T05:03:53;4.47;;;2.85;;
34505;SDS011;20748;42.632;23.198;2023-07-28T05:06:31;5.13;;;2.75;;
34505;SDS011;20748;42.632;23.198;2023-07-28T05:09:03;3.85;;;2.55;;
34505;SDS011;20748;42.632;23.198;2023-07-28T05:11:40;6.22;;;2.63;;
34505;SDS011;20748;42.632;23.198;2023-07-28T05:14:12;4.97;;;2.97;;
34505;SDS011;20748;42.632;23.198;2023-07-28T05:16:45;4.30;;;3.17;;
34505;SDS011;20748;42.632;23.198;2023-07-28T05:19:37;5.03;;;2.97;;
34505;SDS011;20748;42.632;23.198;2023-07-28T05:22:22;6.22;;;3.10;;
34505;SDS011;20748;42.632;23.198;2023-07-28T05:24:58;4.05;;;2.92;;
34505;SDS011;20748;42.632;23.198;2023-07-28T05:27:33;6.75;;;3.40;;
34505;SDS011;20748;42.632;23.198;2023-07-28T05:30:06;3.80;;;2.72;;
34505;SDS011;20748;42.632;23.198;2023-07-28T05:32:39;3.75;;;2.50;;
34505;SDS011;20748;42.632;23.198;2023-07-28T05:35:29;3.63;;;2.43;;
34505;SDS011;20748;42.632;23.198;2023-07-28T05:38:01;3.55;;;2.70;;
34505;SDS011;20748;42.632;23.198;2023-07-28T05:40:34;4.05;;;2.63;;
34505;SDS011;20748;42.632;23.198;2023-07-28T05:43:06;3.88;;;2.90;;
34505;SDS011;20748;42.632;23.198;2023-07-28T05:45:43;3.40;;;2.33;;
34505;SDS011;20748;42.632;23.198;2023-07-28T05:48:18;3.85;;;2.75;;
34505;SDS011;20748;42.632;23.198;2023-07-28T05:50:51;3.70;;;2.60;;
34505;SDS011;20748;42.632;23.198;2023-07-28T05:53:25;3.78;;;2.50;;
34505;SDS011;20748;42.632;23.198;2023-07-28T05:56:03;3.35;;;2.65;;
34505;SDS011;20748;42.632;23.198;2023-07-28T05:58:37;3.97;;;2.17;;
34505;SDS011;20748;42.632;23.198;2023-07-28T06:01:10;4.28;;;2.17;;
34505;SDS011;20748;42.632;23.198;2023-07-28T06:04:00;3.80;;;2.35;;
34505;SDS011;20748;42.632;23.198;2023-07-28T06:06:36;3.85;;;2.20;;
34505;SDS011;20748;42.632;23.198;2023-07-28T06:09:08;2.97;;;2.13;;
34505;SDS011;20748;42.632;23.198;2023-07-28T06:11:43;4.20;;;2.63;;
34505;SDS011;20748;42.632;23.198;2023-07-28T06:14:15;3.35;;;1.92;;
34505;SDS011;20748;42.632;23.198;2023-07-28T06:16:48;3.40;;;2.17;;
34505;SDS011;20748;42.632;23.198;2023-07-28T06:19:21;3.28;;;2.33;;
34505;SDS011;20748;42.632;23.198;2023-07-28T06:21:56;3.33;;;2.28;;
34505;SDS011;20748;42.632;23.198;2023-07-28T06:24:29;4.03;;;1.88;;
34505;SDS011;20748;42.632;23.198;2023-07-28T06:27:05;6.22;;;2.00;;
34505;SDS011;20748;42.632;23.198;2023-07-28T06:29:42;3.80;;;2.50;;
34505;SDS011;20748;42.632;23.198;2023-07-28T06:32:15;2.70;;;2.10;;
34505;SDS011;20748;42.632;23.198;2023-07-28T06:34:48;3.67;;;2.20;;
34505;SDS011;20748;42.632;23.198;2023-07-28T06:37:21;5.15;;;2.05;;
34505;SDS011;20748;42.632;23.198;2023-07-28T06:39:54;3.47;;;2.08;;
34505;SDS011;20748;42.632;23.198;2023-07-28T06:42:27;3.22;;;2.30;;
34505;SDS011;20748;42.632;23.198;2023-07-28T06:45:01;6.85;;;2.15;;
34505;SDS011;20748;42.632;23.198;2023-07-28T06:47:34;3.13;;;2.17;;
34505;SDS011;20748;42.632;23.198;2023-07-28T06:50:07;2.67;;;2.13;;
34505;SDS011;20748;42.632;23.198;2023-07-28T06:52:41;3.10;;;1.88;;
34505;SDS011;20748;42.632;23.198;2023-07-28T06:55:14;3.95;;;1.85;;
34505;SDS011;20748;42.632;23.198;2023-07-28T06:57:47;3.30;;;1.85;;
34505;SDS011;20748;42.632;23.198;2023-07-28T07:00:20;7.63;;;2.50;;
34505;SDS011;20748;42.632;23.198;2023-07-28T07:02:53;4.10;;;2.50;;
34505;SDS011;20748;42.632;23.198;2023-07-28T07:05:25;7.07;;;2.25;;
34505;SDS011;20748;42.632;23.198;2023-07-28T07:07:59;6.75;;;2.35;;
34505;SDS011;20748;42.632;23.198;2023-07-28T07:10:33;4.20;;;2.28;;
34505;SDS011;20748;42.632;23.198;2023-07-28T07:13:05;6.03;;;2.22;;
34505;SDS011;20748;42.632;23.198;2023-07-28T07:15:38;8.20;;;2.53;;
34505;SDS011;20748;42.632;23.198;2023-07-28T07:18:10;6.97;;;2.70;;
34505;SDS011;20748;42.632;23.198;2023-07-28T07:20:43;5.43;;;2.53;;
34505;SDS011;20748;42.632;23.198;2023-07-28T07:23:17;5.78;;;2.83;;
34505;SDS011;20748;42.632;23.198;2023-07-28T07:25:49;5.60;;;2.75;;
34505;SDS011;20748;42.632;23.198;2023-07-28T07:28:22;8.27;;;2.80;;
34505;SDS011;20748;42.632;23.198;2023-07-28T07:30:54;3.75;;;2.60;;
34505;SDS011;20748;42.632;23.198;2023-07-28T07:33:27;4.93;;;2.15;;
34505;SDS011;20748;42.632;23.198;2023-07-28T07:35:59;3.83;;;2.17;;
34505;SDS011;20748;42.632;23.198;2023-07-28T07:38:32;6.03;;;2.60;;
34505;SDS011;20748;42.632;23.198;2023-07-28T07:41:05;3.35;;;2.08;;
34505;SDS011;20748;42.632;23.198;2023-07-28T07:43:37;2.75;;;2.08;;
34505;SDS011;20748;42.632;23.198;2023-07-28T07:46:10;2.95;;;2.00;;
34505;SDS011;20748;42.632;23.198;2023-07-28T07:48:42;5.95;;;1.90;;
34505;SDS011;20748;42.632;23.198;2023-07-28T07:51:15;3.22;;;1.55;;
34505;SDS011;20748;42.632;23.198;2023-07-28T07:53:49;2.97;;;1.65;;
34505;SDS011;20748;42.632;23.198;2023-07-28T07:56:21;4.68;;;3.83;;
34505;SDS011;20748;42.632;23.198;2023-07-28T07:58:54;3.22;;;1.83;;
34505;SDS011;20748;42.632;23.198;2023-07-28T08:01:26;4.10;;;1.58;;
34505;SDS011;20748;42.632;23.198;2023-07-28T08:03:59;3.90;;;1.40;;
34505;SDS011;20748;42.632;23.198;2023-07-28T08:06:32;3.90;;;2.75;;
34505;SDS011;20748;42.632;23.198;2023-07-28T08:09:05;2.42;;;1.58;;
34505;SDS011;20748;42.632;23.198;2023-07-28T08:11:38;3.75;;;1.90;;
34505;SDS011;20748;42.632;23.198;2023-07-28T08:14:11;3.70;;;2.53;;
34505;SDS011;20748;42.632;23.198;2023-07-28T08:16:44;3.17;;;2.33;;
34505;SDS011;20748;42.632;23.198;2023-07-28T08:19:16;3.35;;;1.60;;
34505;SDS011;20748;42.632;23.198;2023-07-28T08:21:48;2.50;;;1.70;;
34505;SDS011;20748;42.632;23.198;2023-07-28T08:24:22;3.28;;;2.00;;
34505;SDS011;20748;42.632;23.198;2023-07-28T08:26:54;1.58;;;1.23;;
34505;SDS011;20748;42.632;23.198;2023-07-28T08:29:27;2.08;;;1.48;;
34505;SDS011;20748;42.632;23.198;2023-07-28T08:31:59;2.45;;;1.42;;
34505;SDS011;20748;42.632;23.198;2023-07-28T08:34:33;2.90;;;1.67;;
34505;SDS011;20748;42.632;23.198;2023-07-28T08:37:05;2.42;;;1.75;;
34505;SDS011;20748;42.632;23.198;2023-07-28T08:39:38;11.52;;;2.95;;
34505;SDS011;20748;42.632;23.198;2023-07-28T08:42:11;2.00;;;1.30;;
34505;SDS011;20748;42.632;23.198;2023-07-28T08:44:43;2.20;;;1.55;;
34505;SDS011;20748;42.632;23.198;2023-07-28T08:47:17;5.85;;;1.67;;
34505;SDS011;20748;42.632;23.198;2023-07-28T08:49:50;2.85;;;1.67;;
34505;SDS011;20748;42.632;23.198;2023-07-28T08:52:22;3.08;;;1.58;;
34505;SDS011;20748;42.632;23.198;2023-07-28T08:54:56;3.20;;;1.60;;
34505;SDS011;20748;42.632;23.198;2023-07-28T08:57:28;1.67;;;1.20;;
34505;SDS011;20748;42.632;23.198;2023-07-28T09:00:06;1.73;;;1.40;;
34505;SDS011;20748;42.632;23.198;2023-07-28T09:02:40;2.50;;;1.20;;
34505;SDS011;20748;42.632;23.198;2023-07-28T09:05:17;2.58;;;1.48;;
34505;SDS011;20748;42.632;23.198;2023-07-28T09:07:51;2.55;;;1.40;;
34505;SDS011;20748;42.632;23.198;2023-07-28T09:10:24;3.50;;;1.65;;
34505;SDS011;20748;42.632;23.198;2023-07-28T09:12:57;2.53;;;1.50;;
34505;SDS011;20748;42.632;23.198;2023-07-28T09:15:34;2.40;;;1.55;;
34505;SDS011;20748;42.632;23.198;2023-07-28T09:18:07;2.33;;;1.38;;
34505;SDS011;20748;42.632;23.198;2023-07-28T09:20:42;2.78;;;1.60;;
34505;SDS011;20748;42.632;23.198;2023-07-28T09:23:15;2.00;;;1.48;;
34505;SDS011;20748;42.632;23.198;2023-07-28T09:25:48;2.08;;;1.30;;
34505;SDS011;20748;42.632;23.198;2023-07-28T09:28:21;1.95;;;1.30;;
34505;SDS011;20748;42.632;23.198;2023-07-28T09:30:53;2.20;;;1.45;;
34505;SDS011;20748;42.632;23.198;2023-07-28T09:33:29;3.72;;;2.03;;
34505;SDS011;20748;42.632;23.198;2023-07-28T09:36:07;3.08;;;1.90;;
34505;SDS011;20748;42.632;23.198;2023-07-28T09:38:40;3.93;;;2.50;;
34505;SDS011;20748;42.632;23.198;2023-07-28T09:41:14;2.95;;;1.70;;
34505;SDS011;20748;42.632;23.198;2023-07-28T09:43:46;6.45;;;1.90;;
34505;SDS011;20748;42.632;23.198;2023-07-28T09:46:21;3.30;;;1.83;;
34505;SDS011;20748;42.632;23.198;2023-07-28T09:48:55;3.65;;;1.95;;
34505;SDS011;20748;42.632;23.198;2023-07-28T09:51:29;2.15;;;1.60;;
34505;SDS011;20748;42.632;23.198;2023-07-28T09:54:05;2.80;;;1.80;;
34505;SDS011;20748;42.632;23.198;2023-07-28T09:56:57;4.03;;;1.77;;
34505;SDS011;20748;42.632;23.198;2023-07-28T09:59:31;4.28;;;1.95;;
34505;SDS011;20748;42.632;23.198;2023-07-28T10:02:07;4.53;;;1.92;;
34505;SDS011;20748;42.632;23.198;2023-07-28T10:04:40;2.75;;;1.90;;
34505;SDS011;20748;42.632;23.198;2023-07-28T10:07:13;2.53;;;1.55;;
34505;SDS011;20748;42.632;23.198;2023-07-28T10:09:46;5.15;;;1.63;;
34505;SDS011;20748;42.632;23.198;2023-07-28T10:12:21;3.25;;;1.70;;
34505;SDS011;20748;42.632;23.198;2023-07-28T10:15:00;3.35;;;1.95;;
34505;SDS011;20748;42.632;23.198;2023-07-28T10:17:33;2.60;;;1.40;;
34505;SDS011;20748;42.632;23.198;2023-07-28T10:20:09;3.90;;;1.85;;
34505;SDS011;20748;42.632;23.198;2023-07-28T10:23:05;6.28;;;2.00;;
34505;SDS011;20748;42.632;23.198;2023-07-28T10:25:40;2.17;;;1.52;;
34505;SDS011;20748;42.632;23.198;2023-07-28T10:31:09;3.25;;;1.50;;
34505;SDS011;20748;42.632;23.198;2023-07-28T10:33:43;3.70;;;2.08;;
34505;SDS011;20748;42.632;23.198;2023-07-28T10:36:17;7.13;;;1.73;;
34505;SDS011;20748;42.632;23.198;2023-07-28T10:39:12;2.27;;;1.77;;
34505;SDS011;20748;42.632;23.198;2023-07-28T10:42:01;3.88;;;1.88;;
34505;SDS011;20748;42.632;23.198;2023-07-28T10:44:38;2.95;;;1.90;;
34505;SDS011;20748;42.632;23.198;2023-07-28T10:47:11;12.18;;;2.13;;
34505;SDS011;20748;42.632;23.198;2023-07-28T10:49:46;3.35;;;1.70;;
34505;SDS011;20748;42.632;23.198;2023-07-28T10:52:24;8.98;;;2.70;;
34505;SDS011;20748;42.632;23.198;2023-07-28T10:55:14;4.45;;;1.92;;
34505;SDS011;20748;42.632;23.198;2023-07-28T10:57:49;2.30;;;1.70;;
34505;SDS011;20748;42.632;23.198;2023-07-28T11:00:24;2.78;;;1.80;;
34505;SDS011;20748;42.632;23.198;2023-07-28T11:02:56;3.88;;;2.20;;
34505;SDS011;20748;42.632;23.198;2023-07-28T11:05:29;2.67;;;1.58;;
34505;SDS011;20748;42.632;23.198;2023-07-28T11:08:02;3.13;;;1.77;;
34505;SDS011;20748;42.632;23.198;2023-07-28T11:10:35;3.22;;;1.88;;
34505;SDS011;20748;42.632;23.198;2023-07-28T11:13:07;4.28;;;1.95;;
34505;SDS011;20748;42.632;23.198;2023-07-28T11:16:01;3.70;;;2.03;;
34505;SDS011;20748;42.632;23.198;2023-07-28T11:18:34;2.88;;;1.85;;
34505;SDS011;20748;42.632;23.198;2023-07-28T11:21:06;2.75;;;1.80;;
34505;SDS011;20748;42.632;23.198;2023-07-28T11:23:41;3.30;;;2.00;;
34505;SDS011;20748;42.632;23.198;2023-07-28T11:26:16;3.33;;;2.28;;
34505;SDS011;20748;42.632;23.198;2023-07-28T11:28:49;2.72;;;1.85;;
34505;SDS011;20748;42.632;23.198;2023-07-28T11:31:26;2.92;;;2.03;;
34505;SDS011;20748;42.632;23.198;2023-07-28T11:33:59;3.38;;;1.92;;
34505;SDS011;20748;42.632;23.198;2023-07-28T11:36:32;4.55;;;2.10;;
34505;SDS011;20748;42.632;23.198;2023-07-28T11:39:04;3.72;;;2.35;;
34505;SDS011;20748;42.632;23.198;2023-07-28T11:41:37;4.05;;;2.33;;
34505;SDS011;20748;42.632;23.198;2023-07-28T11:44:12;5.38;;;2.05;;
34505;SDS011;20748;42.632;23.198;2023-07-28T11:46:45;2.95;;;1.75;;
34505;SDS011;20748;42.632;23.198;2023-07-28T11:49:18;3.60;;;2.10;;
34505;SDS011;20748;42.632;23.198;2023-07-28T11:51:54;3.47;;;2.63;;
34505;SDS011;20748;42.632;23.198;2023-07-28T11:54:30;2.67;;;2.13;;
34505;SDS011;20748;42.632;23.198;2023-07-28T11:57:03;2.88;;;1.73;;
34505;SDS011;20748;42.632;23.198;2023-07-28T11:59:35;4.80;;;2.22;;
34505;SDS011;20748;42.632;23.198;2023-07-28T12:02:09;3.38;;;1.90;;
34505;SDS011;20748;42.632;23.198;2023-07-28T12:04:44;4.40;;;2.00;;
34505;SDS011;20748;42.632;23.198;2023-07-28T12:07:27;3.22;;;2.13;;
34505;SDS011;20748;42.632;23.198;2023-07-28T12:12:40;3.88;;;1.58;;
34505;SDS011;20748;42.632;23.198;2023-07-28T12:15:19;3.05;;;1.95;;
34505;SDS011;20748;42.632;23.198;2023-07-28T12:18:05;4.72;;;2.35;;
34505;SDS011;20748;42.632;23.198;2023-07-28T12:20:43;2.50;;;1.98;;
34505;SDS011;20748;42.632;23.198;2023-07-28T12:23:19;3.15;;;1.58;;
34505;SDS011;20748;42.632;23.198;2023-07-28T12:25:55;4.70;;;1.95;;
34505;SDS011;20748;42.632;23.198;2023-07-28T12:28:29;3.58;;;2.20;;
34505;SDS011;20748;42.632;23.198;2023-07-28T12:31:02;3.40;;;1.98;;
34505;SDS011;20748;42.632;23.198;2023-07-28T12:33:35;2.70;;;2.13;;
34505;SDS011;20748;42.632;23.198;2023-07-28T12:36:11;2.30;;;1.73;;
34505;SDS011;20748;42.632;23.198;2023-07-28T12:38:46;4.32;;;2.35;;
34505;SDS011;20748;42.632;23.198;2023-07-28T12:41:18;3.35;;;2.10;;
34505;SDS011;20748;42.632;23.198;2023-07-28T12:43:53;6.82;;;2.20;;
34505;SDS011;20748;42.632;23.198;2023-07-28T12:46:28;2.85;;;1.77;;
34505;SDS011;20748;42.632;23.198;2023-07-28T12:49:01;3.47;;;1.92;;
34505;SDS011;20748;42.632;23.198;2023-07-28T12:51:34;2.90;;;1.92;;
34505;SDS011;20748;42.632;23.198;2023-07-28T12:54:07;2.88;;;1.95;;
34505;SDS011;20748;42.632;23.198;2023-07-28T12:56:39;2.30;;;1.70;;
34505;SDS011;20748;42.632;23.198;2023-07-28T12:59:12;3.85;;;1.90;;
34505;SDS011;20748;42.632;23.198;2023-07-28T13:01:47;3.78;;;2.15;;
34505;SDS011;20748;42.632;23.198;2023-07-28T13:04:20;2.88;;;1.98;;
34505;SDS011;20748;42.632;23.198;2023-07-28T13:06:52;3.50;;;2.30;;
34505;SDS011;20748;42.632;23.198;2023-07-28T13:09:45;2.70;;;2.03;;
34505;SDS011;20748;42.632;23.198;2023-07-28T13:12:17;3.10;;;2.00;;
34505;SDS011;20748;42.632;23.198;2023-07-28T13:14:52;2.88;;;2.15;;
34505;SDS011;20748;42.632;23.198;2023-07-28T13:17:25;3.20;;;2.00;;
34505;SDS011;20748;42.632;23.198;2023-07-28T13:19:58;2.53;;;1.75;;
34505;SDS011;20748;42.632;23.198;2023-07-28T13:22:31;3.22;;;2.20;;
34505;SDS011;20748;42.632;23.198;2023-07-28T13:25:04;4.07;;;2.00;;
34505;SDS011;20748;42.632;23.198;2023-07-28T13:27:36;3.00;;;2.17;;
34505;SDS011;20748;42.632;23.198;2023-07-28T13:30:09;4.57;;;2.35;;
34505;SDS011;20748;42.632;23.198;2023-07-28T13:32:42;3.40;;;2.03;;
34505;SDS011;20748;42.632;23.198;2023-07-28T13:35:15;2.72;;;1.73;;
34505;SDS011;20748;42.632;23.198;2023-07-28T13:37:49;6.03;;;2.70;;
34505;SDS011;20748;42.632;23.198;2023-07-28T13:40:21;3.75;;;2.22;;
34505;SDS011;20748;42.632;23.198;2023-07-28T13:42:56;3.70;;;1.92;;
34505;SDS011;20748;42.632;23.198;2023-07-28T13:45:29;2.88;;;2.00;;
34505;SDS011;20748;42.632;23.198;2023-07-28T13:48:01;4.28;;;2.25;;
34505;SDS011;20748;42.632;23.198;2023-07-28T13:50:35;2.92;;;1.90;;
34505;SDS011;20748;42.632;23.198;2023-07-28T13:53:09;3.28;;;2.30;;
34505;SDS011;20748;42.632;23.198;2023-07-28T13:55:45;2.60;;;2.38;;
34505;SDS011;20748;42.632;23.198;2023-07-28T13:58:28;2.70;;;1.75;;
34505;SDS011;20748;42.632;23.198;2023-07-28T14:01:00;2.88;;;1.75;;
34505;SDS011;20748;42.632;23.198;2023-07-28T14:03:40;2.92;;;1.92;;
34505;SDS011;20748;42.632;23.198;2023-07-28T14:06:13;3.38;;;2.60;;
34505;SDS011;20748;42.632;23.198;2023-07-28T14:08:45;3.50;;;1.90;;
34505;SDS011;20748;42.632;23.198;2023-07-28T14:11:18;4.20;;;2.20;;
34505;SDS011;20748;42.632;23.198;2023-07-28T14:13:50;2.80;;;1.73;;
34505;SDS011;20748;42.632;23.198;2023-07-28T14:16:22;3.72;;;2.10;;
34505;SDS011;20748;42.632;23.198;2023-07-28T14:18:55;4.15;;;2.28;;
34505;SDS011;20748;42.632;23.198;2023-07-28T14:21:28;3.00;;;1.92;;
34505;SDS011;20748;42.632;23.198;2023-07-28T14:24:00;3.05;;;2.03;;
34505;SDS011;20748;42.632;23.198;2023-07-28T14:26:33;2.80;;;2.08;;
34505;SDS011;20748;42.632;23.198;2023-07-28T14:29:05;2.80;;;1.70;;
34505;SDS011;20748;42.632;23.198;2023-07-28T14:31:37;3.03;;;1.92;;
34505;SDS011;20748;42.632;23.198;2023-07-28T14:34:10;3.15;;;2.08;;
34505;SDS011;20748;42.632;23.198;2023-07-28T14:36:43;2.80;;;1.85;;
34505;SDS011;20748;42.632;23.198;2023-07-28T14:39:15;4.65;;;2.25;;
34505;SDS011;20748;42.632;23.198;2023-07-28T14:41:48;3.25;;;1.98;;
34505;SDS011;20748;42.632;23.198;2023-07-28T14:44:21;2.60;;;1.63;;
34505;SDS011;20748;42.632;23.198;2023-07-28T14:46:53;2.53;;;1.90;;
34505;SDS011;20748;42.632;23.198;2023-07-28T14:49:26;3.10;;;1.85;;
34505;SDS011;20748;42.632;23.198;2023-07-28T14:52:00;2.85;;;1.90;;
34505;SDS011;20748;42.632;23.198;2023-07-28T14:54:32;5.20;;;2.00;;
34505;SDS011;20748;42.632;23.198;2023-07-28T14:57:04;2.65;;;1.75;;
34505;SDS011;20748;42.632;23.198;2023-07-28T14:59:48;3.50;;;1.83;;
34505;SDS011;20748;42.632;23.198;2023-07-28T15:02:20;3.67;;;2.17;;
34505;SDS011;20748;42.632;23.198;2023-07-28T15:04:53;2.80;;;2.00;;
34505;SDS011;20748;42.632;23.198;2023-07-28T15:07:26;2.83;;;1.88;;
34505;SDS011;20748;42.632;23.198;2023-07-28T15:09:58;2.88;;;1.98;;
34505;SDS011;20748;42.632;23.198;2023-07-28T15:12:30;2.67;;;1.80;;
34505;SDS011;20748;42.632;23.198;2023-07-28T15:15:03;3.03;;;1.75;;
34505;SDS011;20748;42.632;23.198;2023-07-28T15:17:36;4.03;;;1.63;;
34505;SDS011;20748;42.632;23.198;2023-07-28T15:20:09;3.47;;;1.90;;